createdAt,value
2019-02-08T00:00:44.073Z,10.55
2019-02-08T00:03:10.238Z,9.68
2019-02-08T00:05:36.410Z,11.10
2019-02-08T00:08:02.561Z,12.33
2019-02-08T00:10:28.780Z,10.98
2019-02-08T00:12:55.436Z,10.08
2019-02-08T00:15:21.591Z,10.25
2019-02-08T00:17:47.749Z,10.60
2019-02-08T00:20:13.937Z,10.65
2019-02-08T00:22:40.084Z,10.35
2019-02-08T00:25:06.263Z,9.10
2019-02-08T00:27:32.464Z,10.38
2019-02-08T00:29:58.621Z,10.03
2019-02-08T00:32:24.800Z,9.23
2019-02-08T00:34:51.323Z,10.68
2019-02-08T00:37:17.480Z,10.10
2019-02-08T00:39:43.659Z,9.10
2019-02-08T00:42:09.814Z,10.18
2019-02-08T00:44:35.965Z,9.80
2019-02-08T00:47:02.144Z,11.53
2019-02-08T00:49:28.348Z,11.08
2019-02-08T00:51:54.515Z,10.00
2019-02-08T00:54:20.690Z,10.48
2019-02-08T00:56:47.217Z,9.75
2019-02-08T00:59:13.466Z,10.08
2019-02-08T01:01:39.652Z,11.45
2019-02-08T01:04:05.812Z,11.78
2019-02-08T01:06:31.966Z,10.00
2019-02-08T01:08:58.217Z,9.38
2019-02-08T01:11:24.375Z,10.28
2019-02-08T01:13:50.532Z,10.38
2019-02-08T01:16:16.743Z,10.48
2019-02-08T01:18:43.310Z,10.13
2019-02-08T01:21:09.463Z,10.60
2019-02-08T01:23:41.094Z,10.03
2019-02-08T01:26:03.517Z,9.83
2019-02-08T01:28:29.679Z,9.20
2019-02-08T01:30:56.019Z,10.35
2019-02-08T01:33:22.182Z,10.18
2019-02-08T01:35:48.342Z,10.00
2019-02-08T01:38:14.525Z,10.28
2019-02-08T01:40:40.678Z,11.18
2019-02-08T01:43:06.831Z,11.18
2019-02-08T01:45:33.017Z,10.00
2019-02-08T01:47:59.179Z,10.38
2019-02-08T01:50:25.411Z,10.63
2019-02-08T01:52:51.600Z,10.60
2019-02-08T01:55:17.750Z,10.00
2019-02-08T01:57:43.904Z,10.95
2019-02-08T02:00:10.155Z,10.23
2019-02-08T02:02:36.308Z,9.98
2019-02-08T02:05:02.462Z,9.85
2019-02-08T02:07:28.647Z,11.80
2019-02-08T02:09:54.834Z,9.85
2019-02-08T02:12:20.992Z,10.75
2019-02-08T02:14:47.176Z,10.65
2019-02-08T02:17:13.339Z,10.28
2019-02-08T02:19:39.549Z,10.25
2019-02-08T02:22:05.725Z,12.05
2019-02-08T02:24:31.874Z,10.68
2019-02-08T02:26:58.039Z,11.57
2019-02-08T02:29:24.293Z,10.68
2019-02-08T02:31:50.457Z,11.25
2019-02-08T02:34:16.615Z,9.88
2019-02-08T02:36:42.801Z,9.88
2019-02-08T02:39:08.975Z,10.43
2019-02-08T02:41:35.130Z,10.50
2019-02-08T02:44:01.302Z,10.48
2019-02-08T02:46:27.457Z,10.20
2019-02-08T02:48:53.685Z,9.73
2019-02-08T02:51:19.862Z,9.40
2019-02-08T02:53:46.022Z,10.30
2019-02-08T02:56:12.181Z,9.85
2019-02-08T02:58:38.428Z,10.98
2019-02-08T03:01:04.595Z,10.68
2019-02-08T03:03:30.749Z,12.33
2019-02-08T03:05:56.910Z,10.15
2019-02-08T03:08:23.110Z,10.68
2019-02-08T03:10:49.301Z,11.15
2019-02-08T03:13:15.469Z,9.13
2019-02-08T03:15:41.635Z,10.32
2019-02-08T03:18:07.821Z,9.48
2019-02-08T03:20:33.987Z,9.18
2019-02-08T03:23:00.135Z,7.08
2019-02-08T03:25:26.309Z,8.88
2019-02-08T03:27:52.465Z,8.00
2019-02-08T03:30:18.626Z,9.08
2019-02-08T03:32:44.799Z,7.75
2019-02-08T03:35:10.962Z,9.75
2019-02-08T03:37:37.121Z,11.05
2019-02-08T03:40:03.301Z,8.70
2019-02-08T03:42:29.456Z,8.85
2019-02-08T03:44:55.614Z,10.75
2019-02-08T03:47:21.791Z,10.98
2019-02-08T03:49:47.979Z,9.73
2019-02-08T03:52:14.142Z,12.47
2019-02-08T03:54:40.332Z,9.75
2019-02-08T03:57:06.498Z,10.28
2019-02-08T03:59:32.698Z,10.20
2019-02-08T04:01:58.878Z,10.20
2019-02-08T04:04:25.044Z,11.22
2019-02-08T04:06:51.187Z,10.32
2019-02-08T04:09:17.439Z,10.63
2019-02-08T04:11:43.594Z,11.28
2019-02-08T04:14:09.759Z,11.80
2019-02-08T04:16:35.973Z,11.60
2019-02-08T04:19:02.226Z,10.93
2019-02-08T04:21:28.378Z,10.78
2019-02-08T04:23:54.570Z,10.60
2019-02-08T04:26:20.725Z,9.70
2019-02-08T04:28:46.986Z,9.65
2019-02-08T04:31:13.114Z,10.18
2019-02-08T04:33:39.267Z,10.18
2019-02-08T04:36:05.420Z,11.00
2019-02-08T04:38:31.678Z,10.90
2019-02-08T04:40:57.832Z,10.58
2019-02-08T04:43:24.018Z,10.05
2019-02-08T04:45:50.176Z,10.35
2019-02-08T04:48:16.361Z,10.50
2019-02-08T04:50:42.535Z,10.60
2019-02-08T04:53:08.696Z,11.05
2019-02-08T04:55:34.855Z,11.33
2019-02-08T04:58:01.046Z,10.18
2019-02-08T05:00:27.198Z,10.63
2019-02-08T05:02:53.355Z,9.70
2019-02-08T05:05:19.529Z,9.95
2019-02-08T05:07:45.682Z,11.10
2019-02-08T05:10:11.837Z,10.85
2019-02-08T05:12:38.009Z,9.60
2019-02-08T05:15:04.169Z,10.55
2019-02-08T05:17:30.326Z,10.68
2019-02-08T05:19:56.559Z,20.30
2019-02-08T05:22:22.726Z,18.50
2019-02-08T05:24:49.774Z,17.20
2019-02-08T05:27:15.929Z,13.25
2019-02-08T05:29:42.162Z,17.85
2019-02-08T05:32:08.337Z,22.75
2019-02-08T05:34:34.493Z,12.93
2019-02-08T05:37:00.642Z,12.63
2019-02-08T05:39:26.905Z,11.73
2019-02-08T05:41:53.059Z,10.23
2019-02-08T05:44:19.242Z,10.13
2019-02-08T05:46:45.406Z,9.38
2019-02-08T05:49:11.583Z,10.23
2019-02-08T05:51:37.748Z,9.48
2019-02-08T05:54:03.904Z,10.05
2019-02-08T05:56:30.055Z,9.58
2019-02-08T05:58:56.327Z,9.28
2019-02-08T06:01:22.610Z,9.83
2019-02-08T06:03:48.869Z,10.38
2019-02-08T06:06:15.020Z,10.85
2019-02-08T06:08:41.214Z,11.38
2019-02-08T06:11:07.537Z,11.73
2019-02-08T06:13:33.686Z,11.60
2019-02-08T06:15:59.838Z,12.60
2019-02-08T06:18:26.065Z,13.83
2019-02-08T06:20:52.214Z,11.05
2019-02-08T06:23:18.371Z,11.55
2019-02-08T06:25:44.544Z,10.20
2019-02-08T06:28:10.744Z,10.60
2019-02-08T06:30:36.907Z,10.78
2019-02-08T06:33:03.086Z,11.80
2019-02-08T06:35:29.244Z,8.50
2019-02-08T06:37:55.455Z,10.00
2019-02-08T06:40:21.632Z,9.35
2019-02-08T06:42:47.801Z,10.15
2019-02-08T06:45:13.938Z,9.55
2019-02-08T06:47:40.108Z,9.10
2019-02-08T06:50:06.311Z,10.20
2019-02-08T06:52:32.469Z,10.03
2019-02-08T06:54:58.650Z,11.10
2019-02-08T06:57:24.803Z,10.68
2019-02-08T06:59:50.959Z,10.55
2019-02-08T07:02:17.132Z,9.93
2019-02-08T07:04:43.290Z,8.85
2019-02-08T07:07:09.437Z,8.93
2019-02-08T07:09:35.646Z,8.28
2019-02-08T07:12:01.799Z,9.98
2019-02-08T07:14:27.956Z,9.95
2019-02-08T07:16:54.121Z,8.83
2019-02-08T07:19:20.355Z,9.10
2019-02-08T07:21:46.538Z,9.78
2019-02-08T07:24:12.703Z,10.05
2019-02-08T07:26:38.853Z,8.93
2019-02-08T07:29:05.069Z,9.03
2019-02-08T07:31:31.220Z,9.53
2019-02-08T07:33:57.370Z,8.68
2019-02-08T07:36:23.552Z,9.25
2019-02-08T07:38:49.753Z,9.53
2019-02-08T07:41:15.911Z,9.23
2019-02-08T07:43:42.098Z,7.75
2019-02-08T07:46:08.262Z,9.58
2019-02-08T07:48:34.467Z,8.18
2019-02-08T07:51:00.635Z,9.00
2019-02-08T07:53:26.791Z,9.55
2019-02-08T07:55:52.951Z,8.23
2019-02-08T07:58:19.210Z,9.00
2019-02-08T08:00:45.373Z,8.65
2019-02-08T08:03:11.529Z,8.28
2019-02-08T08:05:37.712Z,8.70
2019-02-08T08:08:03.890Z,9.03
2019-02-08T08:10:30.045Z,7.78
2019-02-08T08:12:56.221Z,8.23
2019-02-08T08:15:22.374Z,8.25
2019-02-08T08:17:48.607Z,8.80
2019-02-08T08:20:14.801Z,6.80
2019-02-08T08:22:40.954Z,8.33
2019-02-08T08:25:07.116Z,7.47
2019-02-08T08:27:33.342Z,9.10
2019-02-08T08:29:59.508Z,8.80
2019-02-08T08:32:25.682Z,8.60
2019-02-08T08:34:51.833Z,7.47
2019-02-08T08:37:17.990Z,7.55
2019-02-08T08:39:44.173Z,8.23
2019-02-08T08:42:10.348Z,7.75
2019-02-08T08:44:36.486Z,8.28
2019-02-08T08:47:02.669Z,7.65
2019-02-08T08:49:28.830Z,7.17
2019-02-08T08:51:54.987Z,9.25
2019-02-08T08:54:21.168Z,7.03
2019-02-08T08:56:47.318Z,9.33
2019-02-08T08:59:13.494Z,7.03
2019-02-08T09:01:39.667Z,6.78
2019-02-08T09:04:05.821Z,8.05
2019-02-08T09:06:31.982Z,8.68
2019-02-08T09:08:58.222Z,7.78
2019-02-08T09:11:24.386Z,6.75
2019-02-08T09:13:50.536Z,8.00
2019-02-08T09:16:16.709Z,7.37
2019-02-08T09:18:42.906Z,6.97
2019-02-08T09:21:09.062Z,6.25
2019-02-08T09:23:35.245Z,8.33
2019-02-08T09:26:01.407Z,7.10
2019-02-08T09:28:27.619Z,6.45
2019-02-08T09:30:53.802Z,6.85
2019-02-08T09:33:19.962Z,7.87
2019-02-08T09:35:46.112Z,6.40
2019-02-08T09:38:12.354Z,7.62
2019-02-08T09:40:38.510Z,7.37
2019-02-08T09:43:04.668Z,7.08
2019-02-08T09:45:30.873Z,7.80
2019-02-08T09:47:57.037Z,7.45
2019-02-08T09:50:23.196Z,6.75
2019-02-08T09:52:49.395Z,6.67
2019-02-08T09:55:15.546Z,7.67
2019-02-08T09:57:41.756Z,6.50
2019-02-08T10:00:07.925Z,7.80
2019-02-08T10:02:34.084Z,6.45
2019-02-08T10:05:00.245Z,6.70
2019-02-08T10:07:26.493Z,6.83
2019-02-08T10:09:52.658Z,6.53
2019-02-08T10:12:18.824Z,7.28
2019-02-08T10:14:45.018Z,6.67
2019-02-08T10:17:11.171Z,8.28
2019-02-08T10:19:37.322Z,7.28
2019-02-08T10:22:03.500Z,5.62
2019-02-08T10:24:29.663Z,6.53
2019-02-08T10:26:55.822Z,7.03
2019-02-08T10:29:22.002Z,7.12
2019-02-08T10:31:48.161Z,8.03
2019-02-08T10:34:14.321Z,7.75
2019-02-08T10:36:40.506Z,6.53
2019-02-08T10:39:06.729Z,7.25
2019-02-08T10:41:32.879Z,6.58
2019-02-08T10:43:59.052Z,6.35
2019-02-08T10:46:25.211Z,6.55
2019-02-08T10:48:51.438Z,6.30
2019-02-08T10:51:17.622Z,6.30
2019-02-08T10:53:43.822Z,6.65
2019-02-08T10:56:15.131Z,6.35
2019-02-08T10:58:37.929Z,6.65
2019-02-08T11:01:04.082Z,6.28
2019-02-08T11:03:30.233Z,6.50
2019-02-08T11:05:56.394Z,7.15
2019-02-08T11:08:22.610Z,5.90
2019-02-08T11:10:48.813Z,6.37
2019-02-08T11:13:14.961Z,6.00
2019-02-08T11:15:41.124Z,7.20
2019-02-08T11:18:07.359Z,6.15
2019-02-08T11:20:33.516Z,6.35
2019-02-08T11:22:59.668Z,6.08
2019-02-08T11:25:25.842Z,6.50
2019-02-08T11:27:52.032Z,6.05
2019-02-08T11:30:18.185Z,6.35
2019-02-08T11:32:44.374Z,6.28
2019-02-08T11:35:10.533Z,6.03
2019-02-08T11:37:36.752Z,6.47
2019-02-08T11:40:02.939Z,7.53
2019-02-08T11:42:29.094Z,6.45
2019-02-08T11:44:55.237Z,5.97
2019-02-08T11:47:21.491Z,6.58
2019-02-08T11:49:47.653Z,6.20
2019-02-08T11:52:13.813Z,6.25
2019-02-08T11:54:39.996Z,6.00
2019-02-08T11:57:06.171Z,5.75
2019-02-08T11:59:32.332Z,5.75
2019-02-08T12:01:58.528Z,6.00
2019-02-08T12:04:24.665Z,6.55
2019-02-08T12:06:50.814Z,5.95
2019-02-08T12:09:18.227Z,6.00
2019-02-08T12:11:44.638Z,5.92
2019-02-08T12:14:10.796Z,6.00
2019-02-08T12:16:36.978Z,6.22
2019-02-08T12:19:03.146Z,6.20
2019-02-08T12:21:29.300Z,5.70
2019-02-08T12:23:55.481Z,6.37
2019-02-08T12:26:21.632Z,4.92
2019-02-08T12:28:47.870Z,6.60
2019-02-08T12:31:14.044Z,6.22
2019-02-08T12:33:40.205Z,5.42
2019-02-08T12:36:06.365Z,5.65
2019-02-08T12:38:32.612Z,6.08
2019-02-08T12:40:58.774Z,6.42
2019-02-08T12:43:24.933Z,6.15
2019-02-08T12:45:51.114Z,5.90
2019-02-08T12:48:17.294Z,5.60
2019-02-08T12:50:43.450Z,5.90
2019-02-08T12:53:09.609Z,5.65
2019-02-08T12:55:35.766Z,5.28
2019-02-08T12:58:02.084Z,5.45
2019-02-08T13:00:28.199Z,5.80
2019-02-08T13:02:54.359Z,6.05
2019-02-08T13:05:20.570Z,5.12
2019-02-08T13:07:46.721Z,5.72
2019-02-08T13:10:12.869Z,5.85
2019-02-08T13:12:39.045Z,5.15
2019-02-08T13:15:05.210Z,5.53
2019-02-08T13:17:31.811Z,5.65
2019-02-08T13:19:58.101Z,5.70
2019-02-08T13:22:24.260Z,4.90
2019-02-08T13:24:50.421Z,5.92
2019-02-08T13:27:16.684Z,5.58
2019-02-08T13:29:42.832Z,5.40
2019-02-08T13:32:08.981Z,6.05
2019-02-08T13:34:35.152Z,4.60
2019-02-08T13:37:01.372Z,5.12
2019-02-08T13:39:27.532Z,5.37
2019-02-08T13:41:53.715Z,5.08
2019-02-08T13:44:19.872Z,5.08
2019-02-08T13:46:46.043Z,4.58
2019-02-08T13:49:12.200Z,4.28
2019-02-08T13:51:38.384Z,5.15
2019-02-08T13:54:04.510Z,4.75
2019-02-08T13:56:30.665Z,4.25
2019-02-08T13:58:56.846Z,5.40
2019-02-08T14:01:23.007Z,4.90
2019-02-08T14:03:49.166Z,4.78
2019-02-08T14:06:15.320Z,4.33
2019-02-08T14:08:41.487Z,5.12
2019-02-08T14:11:07.656Z,4.47
2019-02-08T14:13:40.392Z,4.67
2019-02-08T14:16:01.675Z,4.58
2019-02-08T14:18:27.921Z,5.60
2019-02-08T14:20:54.073Z,4.83
2019-02-08T14:23:20.242Z,4.22
2019-02-08T14:25:46.411Z,3.95
2019-02-08T14:28:12.623Z,4.50
2019-02-08T14:30:38.785Z,3.98
2019-02-08T14:33:04.945Z,4.65
2019-02-08T14:35:31.212Z,4.65
2019-02-08T14:37:57.410Z,4.60
2019-02-08T14:40:23.555Z,4.17
2019-02-08T14:42:49.745Z,4.35
2019-02-08T14:45:15.902Z,4.35
2019-02-08T14:47:42.130Z,3.87
2019-02-08T14:50:08.326Z,4.08
2019-02-08T14:52:34.487Z,4.37
2019-02-08T14:55:00.645Z,3.77
2019-02-08T14:57:26.862Z,4.47
2019-02-08T14:59:53.017Z,4.62
2019-02-08T15:02:19.179Z,3.98
2019-02-08T15:04:45.367Z,4.10
2019-02-08T15:07:11.548Z,3.70
2019-02-08T15:09:37.703Z,3.62
2019-02-08T15:12:03.884Z,4.20
2019-02-08T15:14:30.046Z,3.83
2019-02-08T15:16:56.260Z,4.17
2019-02-08T15:19:22.435Z,4.00
2019-02-08T15:21:48.589Z,3.67
2019-02-08T15:24:14.748Z,4.15
2019-02-08T15:26:41.005Z,4.10
2019-02-08T15:29:07.165Z,3.98
2019-02-08T15:31:33.316Z,3.27
2019-02-08T15:33:59.500Z,3.95
2019-02-08T15:36:25.690Z,3.70
2019-02-08T15:38:51.844Z,4.45
2019-02-08T15:41:18.016Z,3.90
2019-02-08T15:43:44.212Z,3.40
2019-02-08T15:46:10.447Z,3.80
2019-02-08T15:48:36.715Z,3.85
2019-02-08T15:51:02.868Z,3.58
2019-02-08T15:53:29.034Z,4.22
2019-02-08T15:55:55.228Z,4.20
2019-02-08T15:58:22.473Z,3.62
2019-02-08T16:00:48.624Z,3.80
2019-02-08T16:03:14.796Z,3.60
2019-02-08T16:05:40.956Z,4.03
2019-02-08T16:08:07.180Z,4.20
2019-02-08T16:10:33.376Z,3.47
2019-02-08T16:12:59.540Z,4.35
2019-02-08T16:15:25.689Z,3.35
2019-02-08T16:17:51.926Z,3.47
2019-02-08T16:20:18.073Z,4.12
2019-02-08T16:22:44.227Z,4.20
2019-02-08T16:25:10.408Z,4.53
2019-02-08T16:27:39.944Z,4.03
2019-02-08T16:30:04.500Z,3.40
2019-02-08T16:32:30.695Z,3.92
2019-02-08T16:34:56.855Z,3.67
2019-02-08T16:37:23.055Z,3.67
2019-02-08T16:39:49.237Z,3.20
2019-02-08T16:42:15.393Z,3.70
2019-02-08T16:44:41.541Z,3.58
2019-02-08T16:47:07.801Z,4.20
2019-02-08T16:49:33.990Z,3.60
2019-02-08T16:52:00.142Z,4.03
2019-02-08T16:54:26.322Z,3.80
2019-02-08T16:56:52.483Z,3.72
2019-02-08T16:59:18.641Z,3.62
2019-02-08T17:01:44.828Z,3.67
2019-02-08T17:04:10.981Z,4.05
2019-02-08T17:06:37.192Z,3.40
2019-02-08T17:09:03.369Z,3.60
2019-02-08T17:11:29.527Z,3.50
2019-02-08T17:13:55.689Z,3.67
2019-02-08T17:16:21.937Z,3.67
2019-02-08T17:18:48.098Z,3.77
2019-02-08T17:21:14.257Z,3.47
2019-02-08T17:23:40.438Z,3.92
2019-02-08T17:26:06.594Z,3.33
2019-02-08T17:28:32.744Z,3.75
2019-02-08T17:30:58.931Z,3.87
2019-02-08T17:33:25.090Z,3.15
2019-02-08T17:35:51.249Z,3.47
2019-02-08T17:38:17.432Z,3.37
2019-02-08T17:40:43.596Z,3.37
2019-02-08T17:43:09.751Z,3.92
2019-02-08T17:45:35.915Z,3.25
2019-02-08T17:48:02.065Z,3.83
2019-02-08T17:50:28.225Z,3.67
2019-02-08T17:52:54.388Z,4.03
2019-02-08T17:55:20.547Z,3.92
2019-02-08T17:57:46.785Z,3.87
2019-02-08T18:00:12.969Z,3.87
2019-02-08T18:02:39.128Z,3.35
2019-02-08T18:05:05.288Z,3.72
2019-02-08T18:07:31.526Z,3.87
2019-02-08T18:09:57.676Z,3.90
2019-02-08T18:12:23.849Z,3.77
2019-02-08T18:14:50.008Z,4.00
2019-02-08T18:17:16.210Z,3.42
2019-02-08T18:19:42.386Z,3.70
2019-02-08T18:22:08.528Z,3.62
2019-02-08T18:24:34.696Z,4.17
2019-02-08T18:27:00.928Z,3.83
2019-02-08T18:29:27.100Z,4.37
2019-02-08T18:31:53.248Z,4.12
2019-02-08T18:34:19.395Z,3.70
2019-02-08T18:36:45.661Z,3.95
2019-02-08T18:39:11.825Z,4.03
2019-02-08T18:41:38.003Z,3.90
2019-02-08T18:44:04.164Z,4.20
2019-02-08T18:46:30.345Z,4.58
2019-02-08T18:48:56.511Z,4.90
2019-02-08T18:51:22.667Z,4.80
2019-02-08T18:53:48.825Z,4.50
2019-02-08T18:56:15.058Z,4.53
2019-02-08T18:58:41.234Z,4.25
2019-02-08T19:01:07.382Z,3.83
2019-02-08T19:03:33.537Z,4.80
2019-02-08T19:05:59.802Z,3.98
2019-02-08T19:08:25.956Z,5.25
2019-02-08T19:10:52.129Z,5.30
2019-02-08T19:13:18.286Z,5.17
2019-02-08T19:15:44.436Z,5.45
2019-02-08T19:18:10.601Z,6.10
2019-02-08T19:20:36.753Z,5.25
2019-02-08T19:23:02.919Z,5.35
2019-02-08T19:25:29.072Z,5.80
2019-02-08T19:27:55.249Z,4.95
2019-02-08T19:30:21.404Z,5.33
2019-02-08T19:32:47.554Z,4.75
2019-02-08T19:35:13.718Z,6.03
2019-02-08T19:37:39.936Z,5.08
2019-02-08T19:40:06.115Z,5.50
2019-02-08T19:42:32.268Z,6.40
2019-02-08T19:44:58.423Z,6.42
2019-02-08T19:47:24.677Z,10.63
2019-02-08T19:49:50.838Z,6.53
2019-02-08T19:52:17.011Z,7.75
2019-02-08T19:54:43.581Z,6.42
2019-02-08T19:57:09.928Z,6.90
2019-02-08T19:59:36.131Z,7.30
2019-02-08T20:02:02.285Z,6.60
2019-02-08T20:04:28.449Z,6.65
2019-02-08T20:06:54.686Z,7.25
2019-02-08T20:09:20.862Z,6.85
2019-02-08T20:11:47.013Z,7.60
2019-02-08T20:14:13.167Z,7.92
2019-02-08T20:16:39.431Z,7.42
2019-02-08T20:19:05.583Z,7.40
2019-02-08T20:21:31.751Z,7.22
2019-02-08T20:23:57.918Z,7.10
2019-02-08T20:26:24.142Z,7.50
2019-02-08T20:28:50.467Z,7.67
2019-02-08T20:31:16.673Z,6.17
2019-02-08T20:33:42.869Z,6.53
2019-02-08T20:36:09.456Z,6.95
2019-02-08T20:38:35.595Z,7.40
2019-02-08T20:41:01.846Z,8.28
2019-02-08T20:43:28.028Z,7.87
2019-02-08T20:45:54.413Z,7.53
2019-02-08T20:48:20.560Z,7.42
2019-02-08T20:50:46.891Z,7.97
2019-02-08T20:53:13.117Z,9.95
2019-02-08T20:55:39.302Z,8.75
2019-02-08T20:58:05.662Z,8.48
2019-02-08T21:00:31.820Z,9.78
2019-02-08T21:02:58.004Z,9.80
2019-02-08T21:05:24.159Z,10.25
2019-02-08T21:07:50.488Z,10.23
2019-02-08T21:10:16.639Z,9.35
2019-02-08T21:12:42.986Z,10.30
2019-02-08T21:15:09.190Z,10.72
2019-02-08T21:17:35.344Z,12.00
2019-02-08T21:20:01.527Z,12.20
2019-02-08T21:22:27.674Z,11.65
2019-02-08T21:24:53.839Z,12.03
2019-02-08T21:27:20.059Z,11.60
2019-02-08T21:29:46.220Z,10.15
2019-02-08T21:32:12.387Z,11.50
2019-02-08T21:34:38.556Z,12.53
2019-02-08T21:37:04.793Z,13.62
2019-02-08T21:39:30.950Z,13.50
2019-02-08T21:41:57.152Z,12.75
2019-02-08T21:44:23.313Z,11.85
2019-02-08T21:46:49.479Z,14.20
2019-02-08T21:49:15.663Z,14.20
2019-02-08T21:51:41.813Z,12.70
2019-02-08T21:54:08.143Z,13.70
2019-02-08T21:56:34.401Z,13.83
2019-02-08T21:59:05.962Z,14.15
2019-02-08T22:01:28.470Z,12.88
2019-02-08T22:03:54.612Z,12.80
2019-02-08T22:06:20.927Z,14.15
2019-02-08T22:08:47.081Z,11.85
2019-02-08T22:11:14.619Z,13.65
2019-02-08T22:13:40.770Z,14.03
2019-02-08T22:16:07.433Z,13.48
2019-02-08T22:18:33.600Z,14.63
2019-02-08T22:20:59.786Z,12.70
2019-02-08T22:23:25.998Z,13.18
2019-02-08T22:25:52.217Z,13.72
2019-02-08T22:28:18.373Z,13.25
2019-02-08T22:30:44.541Z,13.28
2019-02-08T22:33:10.875Z,13.22
2019-02-08T22:35:37.062Z,14.18
2019-02-08T22:38:03.217Z,12.80
2019-02-08T22:40:29.393Z,66.12
2019-02-08T22:42:55.548Z,38.73
2019-02-08T22:45:21.742Z,35.52
2019-02-08T22:47:47.902Z,29.02
2019-02-08T22:50:14.056Z,27.30
2019-02-08T22:52:40.229Z,28.25
2019-02-08T22:55:06.385Z,27.95
2019-02-08T22:57:32.542Z,31.68
2019-02-08T22:59:58.708Z,32.73
2019-02-08T23:02:24.861Z,37.50
2019-02-08T23:04:51.029Z,36.03
2019-02-08T23:07:17.191Z,37.08
2019-02-08T23:09:43.367Z,36.10
2019-02-08T23:12:09.531Z,32.73
2019-02-08T23:14:35.687Z,38.45
2019-02-08T23:17:01.939Z,33.35
2019-02-08T23:19:28.094Z,39.15
2019-02-08T23:21:55.269Z,38.67
2019-02-08T23:24:21.609Z,38.00
2019-02-08T23:26:47.847Z,39.80
2019-02-08T23:29:14.011Z,53.25
2019-02-08T23:31:40.167Z,52.80
2019-02-08T23:34:06.340Z,50.95
2019-02-08T23:36:32.564Z,59.55
2019-02-08T23:38:58.774Z,72.80
2019-02-08T23:41:24.930Z,77.47
2019-02-08T23:43:51.089Z,77.87
2019-02-08T23:46:17.312Z,77.20
2019-02-08T23:48:43.480Z,72.95
2019-02-08T23:51:09.655Z,74.60
2019-02-08T23:53:35.816Z,79.03
2019-02-08T23:56:02.029Z,80.35
2019-02-08T23:58:28.194Z,86.37
